Time;durP1;ratioP1;P1;durP2;ratioP2;P2;SDS_P1;SDS_P2;PMS_P1;PMS_P2;Temp;Humidity;BMP_temperature;BMP_pressure;BME280_temperature;BME280_humidity;BME280_pressure;Samples;Min_cycle;Max_cycle;Signal;HPM_P1;HPM_P2
2022/05/16 00:02:20;;;;;;;6.10;2.80;;;;;;;10.80;100.00;99219.44;4372315;32;20046;-77
2022/05/16 00:04:49;;;;;;;8.30;3.50;;;;;;;10.70;100.00;99197.72;4372729;32;20035;-77
2022/05/16 00:07:17;;;;;;;8.32;3.22;;;;;;;10.90;100.00;99233.03;4372429;32;20035;-76
2022/05/16 00:09:44;;;;;;;10.85;3.47;;;;;;;10.59;100.00;99185.16;4357924;32;20035;-76
2022/05/16 00:12:13;;;;;;;4.10;2.65;;;;;;;10.54;100.00;99197.47;4369349;32;20043;-77
2022/05/16 00:14:41;;;;;;;8.93;3.25;;;;;;;10.49;100.00;99194.72;4357709;32;20051;-76
2022/05/16 00:17:08;;;;;;;3.08;2.30;;;;;;;10.73;100.00;99241.13;4358147;32;20035;-77
2022/05/16 00:19:34;;;;;;;4.80;2.72;;;;;;;10.66;100.00;99231.59;4372503;32;20070;-77
2022/05/16 00:22:01;;;;;;;11.30;3.22;;;;;;;10.60;100.00;99240.66;4370551;32;20039;-79
2022/05/16 00:24:28;;;;;;;9.93;2.78;;;;;;;10.57;100.00;99246.53;4372451;32;20073;-76
2022/05/16 00:26:56;;;;;;;3.35;2.28;;;;;;;10.48;100.00;99244.25;4371303;32;20043;-76
2022/05/16 00:29:23;;;;;;;5.95;3.15;;;;;;;10.20;100.00;99209.28;4366778;32;20061;-77
2022/05/16 00:31:49;;;;;;;5.32;2.87;;;;;;;10.42;100.00;99250.59;4371201;32;20084;-78
2022/05/16 00:34:16;;;;;;;7.32;2.70;;;;;;;10.10;100.00;99215.25;4371021;32;20069;-76
2022/05/16 00:36:47;;;;;;;4.95;2.20;;;;;;;10.29;100.00;99250.84;4371917;32;20052;-78
2022/05/16 00:39:18;;;;;;;7.12;2.40;;;;;;;10.22;100.00;99244.81;4371731;32;20118;-78
2022/05/16 00:41:48;;;;;;;6.35;2.22;;;;;;;10.20;100.00;99241.56;4371457;32;20039;-78
2022/05/16 00:44:15;;;;;;;3.80;2.50;;;;;;;9.88;100.00;99207.09;4369990;32;20069;-78
2022/05/16 00:46:42;;;;;;;5.05;2.60;;;;;;;10.07;100.00;99243.50;4371269;32;20526;-78
2022/05/16 00:49:13;;;;;;;5.25;2.87;;;;;;;9.99;100.00;99230.44;4370365;32;20411;-77
2022/05/16 00:51:56;;;;;;;7.20;2.83;;;;;;;9.99;100.00;99241.19;4371686;32;20043;-76
2022/05/16 00:54:31;;;;;;;3.33;2.53;;;;;;;9.99;100.00;99246.56;4376150;32;20507;-76
2022/05/16 00:57:03;;;;;;;5.50;2.80;;;;;;;9.89;100.00;99246.34;4371545;32;20361;-76
2022/05/16 00:59:39;;;;;;;4.62;2.70;;;;;;;9.87;100.00;99251.97;4371857;32;20036;-76
2022/05/16 01:04:51;;;;;;;6.25;2.97;;;;;;;9.82;100.00;99252.69;4369893;32;20051;-76
2022/05/16 01:07:30;;;;;;;9.57;2.95;;;;;;;9.70;100.00;99238.50;4371614;32;20065;-78
2022/05/16 01:09:57;;;;;;;3.50;2.05;;;;;;;9.79;100.00;99247.78;4359112;32;20081;-77
2022/05/16 01:12:31;;;;;;;3.33;2.53;;;;;;;9.73;100.00;99243.41;4372101;32;20040;-77
2022/05/16 01:15:00;;;;;;;3.87;2.50;;;;;;;9.44;100.00;99197.66;4371838;32;20102;-77
2022/05/16 01:17:27;;;;;;;5.37;1.87;;;;;;;9.71;100.00;99245.47;4369133;32;20074;-78
2022/05/16 01:19:53;;;;;;;2.78;2.22;;;;;;;9.71;100.00;99240.09;4357943;32;20058;-76
2022/05/16 01:22:42;;;;;;;7.82;3.28;;;;;;;9.71;100.00;99231.22;4358373;32;20065;-76
2022/05/16 01:25:21;;;;;;;5.43;2.17;;;;;;;9.85;100.00;99239.84;4370415;32;20455;-77
2022/05/16 01:27:54;;;;;;;3.50;2.10;;;;;;;9.87;100.00;99241.22;4369818;32;20039;-76
2022/05/16 01:30:24;;;;;;;4.85;2.55;;;;;;;9.65;100.00;99211.47;4371523;32;20040;-76
2022/05/16 01:32:50;;;;;;;7.43;2.53;;;;;;;9.76;100.00;99223.25;4368858;32;20365;-78
2022/05/16 01:35:22;;;;;;;6.65;2.70;;;;;;;9.75;100.00;99230.53;4370791;32;20072;-78
2022/05/16 01:40:34;;;;;;;5.90;2.72;;;;;;;9.78;100.00;99254.25;4368632;32;20036;-77
2022/05/16 01:43:01;;;;;;;5.10;2.28;;;;;;;9.50;100.00;99219.25;4373552;32;20325;-77
2022/05/16 01:45:27;;;;;;;4.78;1.92;;;;;;;9.50;100.00;99217.38;4371640;32;20058;-77
2022/05/16 01:47:54;;;;;;;9.82;2.60;;;;;;;9.66;100.00;99264.22;4358094;32;20068;-76
2022/05/16 01:50:21;;;;;;;4.37;2.25;;;;;;;9.62;100.00;99236.16;4369872;32;20040;-78
2022/05/16 01:52:47;;;;;;;4.55;2.15;;;;;;;9.67;100.00;99255.09;4357816;32;20048;-78
2022/05/16 01:55:15;;;;;;;4.28;2.50;;;;;;;9.39;100.00;99213.66;4370149;32;20036;-77
2022/05/16 01:57:41;;;;;;;6.03;2.20;;;;;;;9.70;100.00;99251.94;4370345;32;20384;-77
2022/05/16 02:00:11;;;;;;;10.88;3.25;;;;;;;9.51;100.00;99212.81;4371926;32;20024;-78
2022/05/16 02:02:42;;;;;;;6.93;2.70;;;;;;;9.84;100.00;99243.59;4371101;32;20070;-76
2022/05/16 02:05:12;;;;;;;3.10;2.30;;;;;;;9.60;100.00;99206.81;4370086;32;20065;-74
2022/05/16 02:07:38;;;;;;;14.20;3.47;;;;;;;9.87;100.00;99254.66;4368137;32;20081;-77
2022/05/16 02:10:07;;;;;;;9.02;2.28;;;;;;;9.58;100.00;99216.19;4354829;33;20414;-76
2022/05/16 02:12:35;;;;;;;6.55;2.20;;;;;;;9.53;100.00;99221.47;4354740;32;20100;-76
2022/05/16 02:15:04;;;;;;;8.23;2.33;;;;;;;9.45;100.00;99220.78;4371491;32;20044;-75
2022/05/16 02:17:30;;;;;;;5.40;2.50;;;;;;;9.36;100.00;99222.19;4371214;32;20070;-76
2022/05/16 02:19:56;;;;;;;5.55;2.22;;;;;;;9.57;100.00;99258.41;4371197;32;20047;-77
2022/05/16 02:25:08;;;;;;;6.40;2.58;;;;;;;9.53;100.00;99264.47;4371538;32;20359;-79
2022/05/16 02:27:35;;;;;;;9.63;2.95;;;;;;;9.54;100.00;99263.41;4371118;32;20061;-78
2022/05/16 02:30:01;;;;;;;8.75;2.50;;;;;;;9.23;100.00;99212.53;4369405;32;20350;-78
2022/05/16 02:32:28;;;;;;;6.75;2.47;;;;;;;9.39;100.00;99240.53;4370226;32;20143;-79
2022/05/16 02:34:55;;;;;;;4.68;1.80;;;;;;;9.40;100.00;99250.25;4372762;32;20380;-79
2022/05/16 02:37:21;;;;;;;4.62;2.42;;;;;;;9.26;100.00;99216.63;4359138;32;20031;-78
2022/05/16 02:39:49;;;;;;;3.92;2.20;;;;;;;9.57;100.00;99254.87;4373840;32;20351;-77
2022/05/16 02:42:15;;;;;;;9.65;2.33;;;;;;;9.56;100.00;99255.94;4371459;32;20031;-78
2022/05/16 02:44:43;;;;;;;11.77;2.60;;;;;;;9.29;100.00;99218.84;4373785;32;20397;-78
2022/05/16 02:47:18;;;;;;;3.75;2.50;;;;;;;9.52;100.00;99254.78;4373578;32;20069;-78
2022/05/16 02:49:44;;;;;;;7.78;2.67;;;;;;;9.26;100.00;99208.56;4372579;32;20040;-79
2022/05/16 02:52:12;;;;;;;3.95;2.40;;;;;;;9.29;100.00;99218.84;4359874;32;20051;-77
2022/05/16 02:54:38;;;;;;;12.88;2.30;;;;;;;9.19;100.00;99211.38;4374506;32;20044;-77
2022/05/16 02:57:06;;;;;;;5.22;2.20;;;;;;;9.54;100.00;99266.09;4374004;32;20053;-76
2022/05/16 02:59:34;;;;;;;7.03;2.00;;;;;;;9.57;100.00;99260.25;4373120;32;20392;-76
2022/05/16 03:02:03;;;;;;;4.65;2.00;;;;;;;9.52;100.00;99246.72;4372359;32;20057;-78
2022/05/16 03:04:30;;;;;;;11.85;4.22;;;;;;;9.57;100.00;99261.09;4359359;32;20362;-77
2022/05/16 03:06:58;;;;;;;6.60;2.97;;;;;;;9.56;100.00;99256.75;4357281;32;20040;-77
2022/05/16 03:09:26;;;;;;;4.07;2.55;;;;;;;9.48;100.00;99257.13;4358386;32;20414;-76
2022/05/16 03:11:52;;;;;;;4.60;2.42;;;;;;;9.18;100.00;99214.31;4358167;32;20043;-77
2022/05/16 03:14:20;;;;;;;8.93;2.37;;;;;;;9.28;100.00;99238.69;4367315;32;20039;-77
2022/05/16 03:16:47;;;;;;;4.43;1.70;;;;;;;9.34;100.00;99256.56;4359433;32;20051;-77
2022/05/16 03:19:14;;;;;;;3.62;3.00;;;;;;;9.24;100.00;99256.34;4358610;32;20075;-76
2022/05/16 03:21:42;;;;;;;3.92;2.15;;;;;;;9.21;100.00;99260.31;4373076;32;20065;-77
2022/05/16 03:24:09;;;;;;;11.35;2.15;;;;;;;9.16;100.00;99259.38;4358654;32;20031;-79
2022/05/16 03:26:37;;;;;;;8.52;2.05;;;;;;;9.18;100.00;99262.66;4370662;32;20058;-77
2022/05/16 03:29:11;;;;;;;6.00;2.12;;;;;;;8.98;100.00;99226.22;4373193;32;20064;-77
2022/05/16 03:31:39;;;;;;;4.32;1.98;;;;;;;9.18;100.00;99262.66;4373239;32;20061;-77
2022/05/16 03:34:07;;;;;;;3.40;1.70;;;;;;;8.91;100.00;99225.53;4371294;32;20167;-77
2022/05/16 03:36:34;;;;;;;6.50;1.55;;;;;;;8.95;100.00;99232.06;4357518;32;20101;-77
2022/05/16 03:41:46;;;;;;;2.28;1.70;;;;;;;9.34;100.00;99267.31;4372477;32;20043;-78
2022/05/16 03:44:12;;;;;;;1.55;1.45;;;;;;;9.36;100.00;99273.25;4370752;32;20065;-77
2022/05/16 03:46:39;;;;;;;1.87;1.23;;;;;;;9.23;100.00;99265.44;4372199;32;20051;-76
2022/05/16 03:49:06;;;;;;;7.50;1.80;;;;;;;9.09;100.00;99238.84;4371909;32;20052;-76
2022/05/16 03:51:32;;;;;;;6.78;1.58;;;;;;;9.31;100.00;99283.09;4373292;32;20043;-76
2022/05/16 03:53:59;;;;;;;3.40;1.50;;;;;;;9.39;100.00;99280.84;4371081;32;20389;-77
2022/05/16 03:56:27;;;;;;;6.15;2.37;;;;;;;9.00;100.00;99237.56;4371877;32;20060;-76
2022/05/16 03:58:55;;;;;;;6.32;2.42;;;;;;;9.27;100.00;99267.44;4372802;32;20035;-76
2022/05/16 04:01:23;;;;;;;2.45;2.03;;;;;;;9.38;100.00;99273.84;4372233;32;20174;-77
2022/05/16 04:03:50;;;;;;;4.43;2.25;;;;;;;9.32;100.00;99265.91;4372593;32;20048;-80
2022/05/16 04:06:17;;;;;;;5.85;3.30;;;;;;;9.13;100.00;99239.19;4370187;32;20058;-78
2022/05/16 04:08:44;;;;;;;8.18;2.35;;;;;;;9.36;100.00;99281.31;4358689;32;20105;-79
2022/05/16 04:11:15;;;;;;;3.60;2.25;;;;;;;9.38;100.00;99281.09;4370927;32;20047;-78
2022/05/16 04:13:42;;;;;;;7.35;2.12;;;;;;;9.47;100.00;99282.34;4370349;32;20091;-78
2022/05/16 04:16:08;;;;;;;8.77;2.78;;;;;;;9.40;100.00;99279.81;4370629;32;20032;-79
2022/05/16 04:18:36;;;;;;;9.63;2.30;;;;;;;9.57;100.00;99287.13;4372122;32;20051;-76
2022/05/16 04:21:04;;;;;;;5.12;1.83;;;;;;;9.62;100.00;99284.53;4372160;32;20035;-77
2022/05/16 04:23:31;;;;;;;5.25;2.03;;;;;;;9.69;100.00;99296.00;4372186;32;20051;-76
2022/05/16 04:25:58;;;;;;;8.73;2.37;;;;;;;9.52;100.00;99257.47;4371335;32;20389;-77
2022/05/16 04:28:25;;;;;;;3.15;1.95;;;;;;;9.81;100.00;99288.72;4370742;32;20065;-77
2022/05/16 04:30:51;;;;;;;2.42;1.80;;;;;;;9.73;100.00;99258.69;4371160;32;20799;-76
2022/05/16 04:33:19;;;;;;;6.55;1.92;;;;;;;9.98;100.00;99290.66;4372179;32;20043;-77
2022/05/16 04:35:45;;;;;;;8.25;2.03;;;;;;;9.74;100.00;99261.16;4371634;32;20057;-76
2022/05/16 04:38:12;;;;;;;5.70;2.30;;;;;;;9.60;100.00;99217.56;4370305;32;20058;-76
2022/05/16 04:42:40;;;;;;;4.57;1.75;;;;;;;9.81;100.00;99250.25;4371255;32;20925;-76
2022/05/16 04:43:25;;;;;;;2.87;1.67;;;;;;;10.04;100.00;99267.38;4372876;32;20031;-76
2022/05/16 04:45:52;;;;;;;2.95;1.37;;;;;;;10.24;100.00;99285.75;4368745;32;20051;-78
2022/05/16 04:48:19;;;;;;;6.90;1.87;;;;;;;10.26;100.00;99283.63;4371728;32;20065;-77
2022/05/16 04:50:45;;;;;;;5.55;1.65;;;;;;;10.36;100.00;99278.47;4371644;32;20035;-77
2022/05/16 04:53:12;;;;;;;7.65;1.62;;;;;;;10.34;100.00;99269.84;4358490;32;20061;-77
2022/05/16 04:55:39;;;;;;;8.25;1.80;;;;;;;10.35;100.00;99272.28;4355320;32;20031;-80
2022/05/16 04:58:05;;;;;;;5.05;1.92;;;;;;;10.46;100.00;99278.66;4371255;32;20065;-78
2022/05/16 05:00:32;;;;;;;2.33;1.40;;;;;;;10.25;100.00;99239.75;4357958;32;20035;-78
2022/05/16 05:02:58;;;;;;;5.25;1.27;;;;;;;10.57;100.00;99286.91;4371042;32;20040;-77
2022/05/16 05:05:24;;;;;;;2.62;1.30;;;;;;;10.61;100.00;99271.88;4370432;32;20043;-75
2022/05/16 05:07:51;;;;;;;6.45;1.60;;;;;;;10.72;100.00;99282.59;4369274;32;20069;-77
2022/05/16 05:16:01;;;;;;;3.60;1.20;;;;;;;10.89;100.00;99287.97;4369471;32;20093;-77
2022/05/16 05:18:28;;;;;;;1.85;1.12;;;;;;;11.02;100.00;99296.78;4343381;32;20040;-77
2022/05/16 05:20:55;;;;;;;4.12;1.25;;;;;;;10.77;100.00;99252.25;4361567;32;20057;-76
2022/05/16 05:23:22;;;;;;;1.33;1.17;;;;;;;11.08;100.00;99279.66;4356251;32;20049;-77
2022/05/16 05:25:48;;;;;;;6.40;1.05;;;;;;;11.07;100.00;99288.78;4371598;32;20121;-78
2022/05/16 05:28:15;;;;;;;4.18;0.98;;;;;;;11.15;100.00;99280.28;4369547;32;20024;-76
2022/05/16 05:30:41;;;;;;;5.25;1.50;;;;;;;11.14;100.00;99270.56;4370132;32;20039;-79
2022/05/16 05:33:07;;;;;;;9.40;1.40;;;;;;;11.08;100.00;99231.13;4370694;32;20364;-78
2022/05/16 05:35:34;;;;;;;10.88;1.20;;;;;;;11.09;100.00;99243.56;4370627;32;20071;-76
2022/05/16 05:38:01;;;;;;;1.23;1.10;;;;;;;11.36;100.00;99277.87;4357656;32;20044;-76
2022/05/16 05:40:27;;;;;;;3.05;1.40;;;;;;;11.53;100.00;99291.31;4357193;32;20076;-76
2022/05/16 05:42:53;;;;;;;8.05;1.52;;;;;;;11.58;100.00;99281.44;4354347;33;20220;-76
2022/05/16 05:45:20;;;;;;;6.80;2.28;;;;;;;11.68;100.00;99271.81;4340613;32;20032;-78
2022/05/16 05:47:47;;;;;;;5.22;1.40;;;;;;;11.77;100.00;99281.09;4369616;32;20460;-77
2022/05/16 05:50:14;;;;;;;2.83;0.93;;;;;;;11.86;100.00;99285.00;4357857;32;20061;-77
2022/05/16 05:52:40;;;;;;;2.50;1.05;;;;;;;11.70;100.00;99258.91;4370051;32;20062;-76
2022/05/16 05:55:07;;;;;;;6.75;1.60;;;;;;;11.87;100.00;99292.03;4371520;32;20051;-80
2022/05/16 05:57:33;;;;;;;1.10;1.10;;;;;;;11.92;100.00;99288.62;4355884;32;20051;-77
2022/05/16 06:00:00;;;;;;;7.72;1.30;;;;;;;11.75;100.00;99250.88;4369350;32;20043;-77
2022/05/16 06:02:26;;;;;;;0.90;0.90;;;;;;;12.11;100.00;99295.31;4368846;32;20052;-77
2022/05/16 06:04:53;;;;;;;6.35;1.17;;;;;;;11.91;100.00;99266.16;4368171;32;20051;-76
2022/05/16 06:07:19;;;;;;;7.72;1.05;;;;;;;12.20;100.00;99301.03;4367051;32;20043;-76
2022/05/16 06:09:46;;;;;;;4.37;1.00;;;;;;;11.92;100.00;99250.84;4370171;32;20386;-79
2022/05/16 06:12:12;;;;;;;4.07;1.30;;;;;;;12.26;100.00;99294.63;4359887;32;20031;-78
2022/05/16 06:14:43;;;;;;;3.72;1.48;;;;;;;12.28;100.00;99292.50;4373491;32;20057;-79
2022/05/16 06:17:17;;;;;;;7.40;1.17;;;;;;;12.44;100.00;99300.75;4371966;32;20043;-78
2022/05/16 06:19:44;;;;;;;2.87;1.35;;;;;;;12.44;100.00;99296.16;4389151;32;20108;-80
2022/05/16 06:22:10;;;;;;;7.70;1.50;;;;;;;12.53;100.00;99304.62;4389089;32;20061;-78
2022/05/16 06:27:23;;;;;;;2.60;1.30;;;;;;;12.49;100.00;99306.19;4387705;32;20065;-83
2022/05/16 06:29:49;;;;;;;3.40;1.40;;;;;;;12.60;100.00;99310.62;4389132;32;20490;-77
2022/05/16 06:32:15;;;;;;;2.85;2.12;;;;;;;12.41;100.00;99272.38;4388943;32;20027;-77
2022/05/16 06:34:42;;;;;;;1.62;0.90;;;;;;;12.63;100.00;99304.72;4388134;32;20076;-77
2022/05/16 06:37:09;;;;;;;5.35;1.35;;;;;;;12.75;100.00;99306.44;4369738;32;20027;-76
2022/05/16 06:39:35;;;;;;;4.20;1.15;;;;;;;12.59;100.00;99271.19;4369845;32;20414;-77
2022/05/16 06:42:02;;;;;;;6.90;1.27;;;;;;;12.86;100.00;99313.53;4371499;32;20069;-77
2022/05/16 06:44:28;;;;;;;8.07;1.10;;;;;;;12.76;100.00;99286.44;4359610;32;20040;-78
2022/05/16 06:46:56;;;;;;;3.60;1.37;;;;;;;12.92;100.00;99299.00;4354898;32;20079;-78
2022/05/16 06:49:29;;;;;;;5.60;1.05;;;;;;;12.75;100.00;99279.41;4368025;32;20047;-79
2022/05/16 06:52:03;;;;;;;3.33;1.65;;;;;;;12.99;100.00;99323.94;4383614;32;20065;-79
2022/05/16 06:54:29;;;;;;;5.50;1.10;;;;;;;13.06;100.00;99313.72;4373616;32;20036;-79
2022/05/16 06:56:56;;;;;;;2.60;1.20;;;;;;;13.17;100.00;99320.00;4371787;32;20044;-78
2022/05/16 06:59:22;;;;;;;5.32;1.67;;;;;;;12.89;100.00;99292.25;4358045;32;20053;-77
2022/05/16 07:01:49;;;;;;;2.15;1.05;;;;;;;13.24;100.00;99325.19;4358459;32;20401;-79
2022/05/16 07:04:15;;;;;;;1.60;0.90;;;;;;;13.26;100.00;99321.16;4371850;32;20054;-77
2022/05/16 07:06:41;;;;;;;1.00;1.00;;;;;;;13.30;100.00;99324.16;4373184;32;20081;-77
2022/05/16 07:09:08;;;;;;;1.48;0.98;;;;;;;13.16;100.00;99322.97;4373348;32;20043;-79
2022/05/16 07:11:35;;;;;;;3.10;1.60;;;;;;;12.96;100.00;99291.22;4371973;32;20086;-80
2022/05/16 07:14:01;;;;;;;3.40;1.15;;;;;;;13.32;100.00;99327.41;4373572;32;20363;-78
2022/05/16 07:16:28;;;;;;;7.07;1.37;;;;;;;13.18;100.00;99282.97;4372945;32;20035;-77
2022/05/16 07:18:54;;;;;;;0.90;0.90;;;;;;;13.51;100.00;99324.31;4372897;32;20590;-78
2022/05/16 07:21:20;;;;;;;3.28;1.50;;;;;;;13.60;100.00;99328.16;4371586;32;20032;-77
2022/05/16 07:23:47;;;;;;;6.03;1.42;;;;;;;13.56;100.00;99294.56;4371378;32;20196;-77
2022/05/16 07:28:58;;;;;;;2.12;1.37;;;;;;;13.91;100.00;99318.31;4386165;32;20187;-77
2022/05/16 07:31:26;;;;;;;10.75;1.80;;;;;;;13.75;100.00;99295.78;4387750;32;20218;-78
2022/05/16 07:33:52;;;;;;;3.15;0.90;;;;;;;13.99;100.00;99314.25;4388128;32;20061;-78
2022/05/16 07:36:19;;;;;;;5.93;1.40;;;;;;;13.75;100.00;99303.91;4388020;32;20072;-78
2022/05/16 07:38:45;;;;;;;5.00;2.03;;;;;;;13.64;100.00;99296.78;4387381;32;20082;-77
2022/05/16 07:41:11;;;;;;;7.45;1.25;;;;;;;13.87;100.00;99327.22;4372967;32;20053;-76
2022/05/16 07:43:38;;;;;;;1.52;1.10;;;;;;;13.89;100.00;99341.28;4371172;32;20078;-78
2022/05/16 07:46:05;;;;;;;3.15;1.20;;;;;;;13.70;100.00;99300.34;4370347;32;20514;-77
2022/05/16 07:48:31;;;;;;;1.52;1.10;;;;;;;13.66;100.00;99300.06;4370153;32;20346;-77
2022/05/16 07:50:58;;;;;;;2.53;0.95;;;;;;;13.75;100.00;99282.25;4355652;32;20043;-77
2022/05/16 07:53:25;;;;;;;5.68;1.15;;;;;;;14.05;100.00;99324.03;4370374;32;20098;-77
2022/05/16 07:55:55;;;;;;;3.47;0.98;;;;;;;14.19;100.00;99334.38;4369632;32;20077;-77
2022/05/16 07:58:23;;;;;;;5.93;1.08;;;;;;;14.03;100.00;99299.13;4357042;32;20035;-77
2022/05/16 08:00:50;;;;;;;4.60;1.52;;;;;;;14.27;100.00;99331.16;4358823;32;20063;-78
2022/05/16 08:03:19;;;;;;;2.72;1.10;;;;;;;14.06;100.00;99290.47;4370601;32;20061;-76
2022/05/16 08:05:46;;;;;;;8.25;1.45;;;;;;;14.38;100.00;99311.12;4372928;32;20355;-79
2022/05/16 08:11:01;;;;;;;4.45;1.40;;;;;;;14.50;100.00;99325.25;4369899;32;20044;-78
2022/05/16 08:13:28;;;;;;;3.15;1.20;;;;;;;14.64;100.00;99324.75;4372485;32;20410;-78
2022/05/16 08:15:55;;;;;;;4.20;1.48;;;;;;;14.46;100.00;99283.50;4358961;32;20441;-82
2022/05/16 08:18:22;;;;;;;3.92;1.27;;;;;;;14.52;100.00;99290.56;4358951;32;20422;-81
2022/05/16 08:20:51;;;;;;;6.87;1.30;;;;;;;14.57;100.00;99281.62;4370781;32;20048;-77
2022/05/16 08:23:23;;;;;;;3.67;1.37;;;;;;;14.88;100.00;99314.19;4372351;32;20807;-79
2022/05/16 08:25:50;;;;;;;2.80;1.40;;;;;;;14.76;100.00;99289.22;4371622;32;20051;-78
2022/05/16 08:28:17;;;;;;;1.42;1.33;;;;;;;14.83;100.00;99325.84;4370516;32;20039;-80
2022/05/16 08:30:43;;;;;;;2.55;1.23;;;;;;;14.73;100.00;99323.13;4369352;32;20039;-77
2022/05/16 08:33:10;;;;;;;2.75;1.92;;;;;;;14.79;100.00;99326.66;4368239;32;20047;-78
2022/05/16 08:35:37;;;;;;;2.83;1.23;;;;;;;14.77;100.00;99324.19;4371248;32;20077;-78
2022/05/16 08:41:09;;;;;;;3.85;1.00;;;;;;;14.83;100.00;99317.69;4380057;32;20116;-78
2022/05/16 08:43:54;;;;;;;1.62;1.00;;;;;;;15.00;100.00;99327.47;4372156;32;20061;-78
2022/05/16 08:46:47;;;;;;;7.05;1.37;;;;;;;14.85;100.00;99307.44;4371470;32;20051;-77
2022/05/16 08:49:26;;;;;;;5.62;0.90;;;;;;;15.07;100.00;99328.81;4371354;32;20423;-77
2022/05/16 08:52:03;;;;;;;5.03;1.17;;;;;;;14.98;100.00;99283.53;4359578;32;20043;-79
2022/05/16 08:54:35;;;;;;;0.98;0.95;;;;;;;15.26;100.00;99326.34;4371425;32;20061;-77
2022/05/16 08:57:06;;;;;;;5.32;1.65;;;;;;;15.25;100.00;99330.19;4355903;32;20437;-76
2022/05/16 08:59:44;;;;;;;4.93;1.30;;;;;;;15.01;100.00;99301.97;4357477;32;20438;-78
2022/05/16 09:02:19;;;;;;;1.33;1.15;;;;;;;15.17;100.00;99300.06;4371836;32;20068;-77
2022/05/16 09:04:51;;;;;;;3.92;1.20;;;;;;;15.40;100.00;99333.94;4370296;32;20042;-79
2022/05/16 09:10:05;;;;;;;4.20;1.15;;;;;;;15.70;100.00;99329.53;4371982;32;20087;-79
2022/05/16 09:13:15;;;;;;;4.43;1.50;;;;;;;15.76;100.00;99328.41;4369006;32;20035;-76
2022/05/16 09:16:00;;;;;;;1.90;0.88;;;;;;;15.76;100.00;99332.00;4369163;32;20425;-76
2022/05/16 09:18:43;;;;;;;2.70;1.27;;;;;;;15.78;100.00;99304.56;4356376;32;20069;-78
2022/05/16 09:21:26;;;;;;;6.15;1.10;;;;;;;16.20;100.00;99346.75;4371270;32;20061;-77
2022/05/16 09:24:11;;;;;;;1.95;1.30;;;;;;;16.23;100.00;99346.19;4357857;32;20396;-78
2022/05/16 09:26:51;;;;;;;4.50;1.30;;;;;;;16.00;100.00;99300.66;4371170;32;20047;-78
2022/05/16 09:29:32;;;;;;;6.10;1.40;;;;;;;16.11;100.00;99335.63;4370010;32;20579;-80
2022/05/16 09:32:10;;;;;;;1.48;1.10;;;;;;;16.05;100.00;99338.66;4371089;32;20418;-78
2022/05/16 09:34:37;;;;;;;5.28;2.35;;;;;;;16.21;100.00;99337.50;4369430;32;20036;-77
2022/05/16 09:37:04;;;;;;;3.00;1.10;;;;;;;16.25;100.00;99335.84;4370850;32;20056;-79
2022/05/16 09:39:35;;;;;;;6.87;1.48;;;;;;;16.11;100.00;99299.53;4371425;32;20066;-79
2022/05/16 09:42:13;;;;;;;5.78;1.25;;;;;;;16.22;100.00;99294.84;4370938;32;20188;-80
2022/05/16 09:44:55;;;;;;;3.05;1.48;;;;;;;16.26;100.00;99294.00;4372407;32;20047;-78
2022/05/16 09:47:34;;;;;;;1.05;0.80;;;;;;;16.37;100.00;99299.37;4374370;32;20039;-78
2022/05/16 09:50:24;;;;;;;1.60;1.48;;;;;;;16.62;100.00;99334.53;4359482;32;20040;-77
2022/05/16 09:53:10;;;;;;;4.22;1.80;;;;;;;16.64;99.24;99337.81;4358980;32;20396;-78
2022/05/16 09:55:53;;;;;;;1.83;1.62;;;;;;;16.56;100.00;99300.34;4370440;32;20057;-77
2022/05/16 09:58:28;;;;;;;2.58;1.20;;;;;;;16.81;100.00;99314.84;4373098;32;20463;-78
2022/05/16 10:00:58;;;;;;;2.97;1.10;;;;;;;16.86;92.52;99331.13;4374063;32;20523;-78
2022/05/16 10:03:29;;;;;;;1.65;1.05;;;;;;;16.83;94.54;99334.41;4371585;32;20040;-77
2022/05/16 10:05:57;;;;;;;5.18;1.02;;;;;;;16.91;96.24;99328.38;4373090;32;20053;-79
2022/05/16 10:08:25;;;;;;;4.45;1.55;;;;;;;16.70;89.39;99295.91;4372885;32;20047;-78
2022/05/16 10:10:51;;;;;;;5.03;1.10;;;;;;;16.92;91.43;99300.09;4362026;32;20039;-78
2022/05/16 10:13:18;;;;;;;9.18;2.15;;;;;;;17.07;79.92;99337.22;4385667;32;20035;-78
2022/05/16 10:15:49;;;;;;;3.58;1.90;;;;;;;17.17;81.12;99328.19;4389376;32;20047;-78
2022/05/16 10:18:19;;;;;;;3.65;1.20;;;;;;;17.19;71.68;99305.00;4389590;32;20533;-78
2022/05/16 10:20:55;;;;;;;1.50;1.20;;;;;;;17.49;73.70;99307.72;4385402;32;20094;-78
2022/05/16 10:23:29;;;;;;;9.23;1.30;;;;;;;17.48;69.59;99282.41;4386940;32;20088;-78
2022/05/16 10:26:01;;;;;;;2.33;1.10;;;;;;;17.72;73.39;99285.13;4386642;32;20051;-78
2022/05/16 10:28:33;;;;;;;0.88;0.85;;;;;;;17.61;77.82;99287.19;4386490;32;20047;-78
2022/05/16 10:33:50;;;;;;;5.15;1.23;;;;;;;17.51;84.20;99272.84;4386962;32;20081;-79
2022/05/16 10:36:30;;;;;;;1.83;1.12;;;;;;;18.00;82.62;99307.16;4388652;32;20350;-77
2022/05/16 10:39:04;;;;;;;7.80;1.08;;;;;;;17.86;80.77;99300.78;4375191;32;20116;-77
2022/05/16 10:41:49;;;;;;;1.48;0.80;;;;;;;18.33;86.78;99299.06;4388179;32;20042;-78
2022/05/16 10:44:38;;;;;;;1.45;0.95;;;;;;;18.43;76.31;99304.38;4388708;32;20073;-77
2022/05/16 10:47:25;;;;;;;1.80;1.42;;;;;;;18.20;75.69;99272.56;4376313;32;20040;-79
2022/05/16 10:50:06;;;;;;;2.42;1.08;;;;;;;18.80;75.10;99286.34;4358325;32;20051;-78
2022/05/16 10:52:51;;;;;;;5.78;1.20;;;;;;;18.78;76.02;99260.47;4373444;32;20065;-78
2022/05/16 10:55:18;;;;;;;3.15;1.20;;;;;;;18.71;68.30;99260.88;4370147;32;20051;-84
2022/05/16 10:58:18;;;;;;;1.27;0.90;;;;;;;19.17;73.78;99284.66;4373315;32;20141;-81
2022/05/16 11:00:57;;;;;;;5.62;1.15;;;;;;;18.99;63.77;99282.81;4371873;32;20112;-84
2022/05/16 11:03:50;;;;;;;2.95;1.10;;;;;;;18.95;67.39;99281.78;4372305;32;20040;-87
2022/05/16 11:06:33;;;;;;;3.92;1.30;;;;;;;19.49;64.83;99288.44;4372013;32;20056;-85
2022/05/16 11:09:03;;;;;;;4.87;1.00;;;;;;;19.28;59.34;99257.19;4374771;32;20059;-84
2022/05/16 11:11:54;;;;;;;2.67;1.15;;;;;;;19.29;62.78;99245.16;4375205;32;20036;-85
2022/05/16 11:14:30;;;;;;;5.37;1.10;;;;;;;19.80;59.20;99282.41;4373658;32;20110;-80
2022/05/16 11:17:05;;;;;;;3.90;1.10;;;;;;;20.06;60.61;99276.41;4374183;32;20043;-86
2022/05/16 11:19:50;;;;;;;3.50;1.45;;;;;;;20.17;54.83;99279.69;4369053;32;20055;-86
2022/05/16 11:22:35;;;;;;;1.92;0.90;;;;;;;20.76;59.89;99271.53;4372045;32;20047;-84
2022/05/16 11:25:13;;;;;;;5.78;1.23;;;;;;;20.92;52.14;99280.97;4372196;32;20044;-85
2022/05/16 11:27:55;;;;;;;7.43;1.10;;;;;;;20.47;54.59;99253.59;4373322;32;20039;-87
2022/05/16 11:30:53;;;;;;;1.87;0.90;;;;;;;20.76;52.67;99277.00;4374741;32;20073;-87
2022/05/16 11:33:20;;;;;;;1.65;1.25;;;;;;;20.44;49.43;99284.31;4359309;32;20058;-84
2022/05/16 11:35:48;;;;;;;3.60;0.85;;;;;;;19.99;50.75;99292.41;4373961;32;20050;-85
2022/05/16 11:38:23;;;;;;;1.70;1.27;;;;;;;20.39;50.26;99287.13;4373895;32;20113;-79
2022/05/16 11:40:57;;;;;;;2.87;1.37;;;;;;;21.03;51.14;99298.75;4373936;32;20081;-84
2022/05/16 11:43:31;;;;;;;3.05;1.15;;;;;;;21.63;45.31;99266.50;4373893;32;20069;-87
2022/05/16 11:46:17;;;;;;;3.87;1.77;;;;;;;22.05;46.97;99288.88;4371268;32;20117;-85
2022/05/16 11:48:52;;;;;;;9.55;1.12;;;;;;;22.37;39.83;99292.34;4359656;32;20031;-86
2022/05/16 11:51:27;;;;;;;1.17;1.17;;;;;;;22.39;41.23;99283.78;4372110;32;20204;-81
2022/05/16 11:54:00;;;;;;;4.70;2.08;;;;;;;22.41;40.89;99249.41;4359924;32;20733;-83
2022/05/16 12:02:22;;;;;;;2.37;1.30;;;;;;;22.18;45.16;99278.06;4372260;32;20043;-80
2022/05/16 12:04:52;;;;;;;1.00;0.90;;;;;;;22.59;43.30;99263.09;4360017;32;20603;-81
2022/05/16 12:07:31;;;;;;;3.30;1.50;;;;;;;22.05;41.78;99261.47;4371494;32;20422;-79
2022/05/16 12:10:02;;;;;;;6.12;1.40;;;;;;;21.71;46.73;99241.06;4357777;32;20047;-81
2022/05/16 12:13:09;;;;;;;2.90;1.23;;;;;;;22.00;43.23;99258.84;4358545;32;20061;-77
2022/05/16 12:15:36;;;;;;;3.33;1.12;;;;;;;22.49;40.66;99256.81;4370755;32;20119;-78
2022/05/16 12:18:06;;;;;;;2.17;0.98;;;;;;;22.58;42.46;99247.78;4372279;32;20193;-77
2022/05/16 12:20:42;;;;;;;4.30;1.60;;;;;;;22.64;40.92;99252.78;4374006;32;20053;-78
2022/05/16 12:23:12;;;;;;;2.60;1.10;;;;;;;21.33;42.88;99252.53;4358052;32;20091;-80
2022/05/16 12:25:39;;;;;;;3.10;1.20;;;;;;;21.46;47.18;99250.00;4369434;32;20039;-77